Time;durP1;ratioP1;P1;durP2;ratioP2;P2;SDS_P1;SDS_P2;PMS_P1;PMS_P2;Temp;Humidity;BMP_temperature;BMP_pressure;BME280_temperature;BME280_humidity;BME280_pressure;Samples;Min_cycle;Max_cycle;Signal;HPM_P1;HPM_P2
2022/01/24 00:00:17;;;;;;;14.55;13.02;;;;;;;;;;4993576;28;95755;-69
2022/01/24 00:02:44;;;;;;;14.77;12.27;;;;;;;;;;4992919;28;96260;-69
2022/01/24 00:05:11;;;;;;;14.48;11.90;;;;;;;;;;4991674;28;93645;-69
2022/01/24 00:07:38;;;;;;;13.20;11.73;;;;;;;;;;4991737;28;92511;-70
2022/01/24 00:10:09;;;;;;;14.05;10.38;;;;;;;;;;4991483;28;94088;-69
2022/01/24 00:17:40;;;;;;;13.35;10.90;;;;;;;;;;4992681;28;94020;-69
2022/01/24 00:28:40;;;;;;;14.48;12.60;;;;;;;;;;4984509;28;93280;-68
2022/01/24 00:31:06;;;;;;;19.33;12.05;;;;;;;;;;4974008;28;94700;-68
2022/01/24 00:33:32;;;;;;;13.30;11.93;;;;;;;;;;4990150;28;93884;-68
2022/01/24 00:35:59;;;;;;;14.63;12.02;;;;;;;;;;4987902;28;94105;-68
2022/01/24 00:38:25;;;;;;;15.02;12.68;;;;;;;;;;4992459;28;94000;-68
2022/01/24 00:40:52;;;;;;;15.45;13.45;;;;;;;;;;4991940;28;94193;-68
2022/01/24 00:43:46;;;;;;;13.77;12.27;;;;;;;;;;4999923;28;91809;-68
2022/01/24 00:46:30;;;;;;;15.43;12.15;;;;;;;;;;4989245;28;94395;-68
2022/01/24 00:56:55;;;;;;;13.45;12.07;;;;;;;;;;4991805;28;94463;-68
2022/01/24 00:59:21;;;;;;;14.65;12.98;;;;;;;;;;4990482;28;93594;-68
2022/01/24 01:01:48;;;;;;;18.65;13.05;;;;;;;;;;4991043;28;94186;-68
2022/01/24 01:04:15;;;;;;;15.57;12.95;;;;;;;;;;4991946;28;92487;-68
2022/01/24 01:06:44;;;;;;;17.05;12.98;;;;;;;;;;4993790;28;94310;-68
2022/01/24 01:20:11;;;;;;;15.45;12.85;;;;;;;;;;4983424;28;95529;-68
2022/01/24 01:22:37;;;;;;;15.02;11.75;;;;;;;;;;4988641;28;93859;-69
2022/01/24 01:25:04;;;;;;;14.55;13.02;;;;;;;;;;4994232;28;93235;-68
2022/01/24 01:27:39;;;;;;;17.80;14.48;;;;;;;;;;4991343;28;94511;-68
2022/01/24 01:30:14;;;;;;;17.10;14.10;;;;;;;;;;4997705;28;94584;-68
2022/01/24 01:33:03;;;;;;;21.55;16.33;;;;;;;;;;4991295;28;93788;-68
2022/01/24 01:36:24;;;;;;;20.42;16.10;;;;;;;;;;4990092;28;92703;-68
2022/01/24 01:38:34;;;;;;;22.05;15.05;;;;;;;;;;4979436;28;92463;-68
2022/01/24 01:52:31;;;;;;;21.55;16.20;;;;;;;;;;4992132;28;94213;-68
2022/01/24 01:57:50;;;;;;;23.07;15.80;;;;;;;;;;4979988;28;95046;-68
2022/01/24 02:00:16;;;;;;;22.90;17.23;;;;;;;;;;4995556;28;92710;-68
2022/01/24 02:02:42;;;;;;;22.10;17.38;;;;;;;;;;4991718;28;92961;-69
2022/01/24 02:05:09;;;;;;;21.27;17.30;;;;;;;;;;4987958;28;93881;-68
2022/01/24 02:07:48;;;;;;;22.17;18.08;;;;;;;;;;4990892;28;93021;-69
2022/01/24 02:10:15;;;;;;;27.27;18.02;;;;;;;;;;4987314;28;94975;-69
2022/01/24 02:12:42;;;;;;;23.73;18.83;;;;;;;;;;4997438;28;94264;-69
2022/01/24 02:15:09;;;;;;;27.08;17.45;;;;;;;;;;4993369;28;93958;-68
2022/01/24 02:20:38;;;;;;;26.27;19.90;;;;;;;;;;4993439;28;92982;-68
2022/01/24 02:25:45;;;;;;;24.63;17.80;;;;;;;;;;4995043;28;94056;-68
2022/01/24 02:28:13;;;;;;;22.17;17.50;;;;;;;;;;4992976;28;91942;-69
2022/01/24 02:33:06;;;;;;;25.92;19.35;;;;;;;;;;4992338;28;94528;-68
2022/01/24 02:35:33;;;;;;;24.52;18.20;;;;;;;;;;4989984;28;95185;-68
2022/01/24 02:38:03;;;;;;;22.80;18.70;;;;;;;;;;4994447;28;96526;-68
2022/01/24 02:40:29;;;;;;;24.20;17.77;;;;;;;;;;4997155;28;92599;-67
2022/01/24 02:48:23;;;;;;;30.50;21.58;;;;;;;;;;4912843;28;94347;-68
2022/01/24 02:48:49;;;;;;;28.05;20.08;;;;;;;;;;4994215;28;94160;-68
2022/01/24 02:51:38;;;;;;;26.95;20.73;;;;;;;;;;4993803;28;92891;-67
2022/01/24 02:54:06;;;;;;;26.50;18.67;;;;;;;;;;4988701;28;93057;-67
2022/01/24 02:56:32;;;;;;;27.17;18.90;;;;;;;;;;4992509;28;92493;-68
2022/01/24 02:58:58;;;;;;;28.75;19.88;;;;;;;;;;4991451;28;93256;-68
2022/01/24 03:01:25;;;;;;;25.67;19.70;;;;;;;;;;4997351;28;96629;-68
2022/01/24 03:03:51;;;;;;;28.48;20.08;;;;;;;;;;4992018;28;95564;-68
2022/01/24 03:06:18;;;;;;;29.75;20.58;;;;;;;;;;4993163;28;94574;-68
2022/01/24 03:08:44;;;;;;;26.52;21.00;;;;;;;;;;4995752;28;93869;-68
2022/01/24 03:11:11;;;;;;;31.45;21.98;;;;;;;;;;4993073;28;93441;-68
2022/01/24 03:13:37;;;;;;;35.78;22.20;;;;;;;;;;4992734;28;94228;-68
2022/01/24 03:16:04;;;;;;;37.63;24.17;;;;;;;;;;4995219;28;92730;-68
2022/01/24 03:18:31;;;;;;;36.42;25.40;;;;;;;;;;4992694;28;93243;-68
2022/01/24 03:20:58;;;;;;;35.00;26.02;;;;;;;;;;4995381;28;94210;-69
2022/01/24 03:23:25;;;;;;;39.20;27.17;;;;;;;;;;4994481;28;93505;-68
2022/01/24 03:25:52;;;;;;;33.38;26.08;;;;;;;;;;5000806;28;95834;-68
2022/01/24 03:28:21;;;;;;;37.28;26.48;;;;;;;;;;4992977;28;93542;-68
2022/01/24 03:30:47;;;;;;;36.75;25.40;;;;;;;;;;4990506;28;94177;-68
2022/01/24 03:33:13;;;;;;;36.53;27.02;;;;;;;;;;4998432;28;94079;-68
2022/01/24 03:35:40;;;;;;;36.53;26.73;;;;;;;;;;4991573;28;93119;-68
2022/01/24 03:38:07;;;;;;;35.88;26.92;;;;;;;;;;4991168;28;92829;-69
2022/01/24 03:40:34;;;;;;;36.00;27.48;;;;;;;;;;4987782;28;93629;-69
2022/01/24 03:43:00;;;;;;;36.97;27.45;;;;;;;;;;4995561;28;92255;-68
2022/01/24 03:45:42;;;;;;;45.58;29.50;;;;;;;;;;4994861;28;92552;-69
2022/01/24 03:50:49;;;;;;;39.88;29.10;;;;;;;;;;4985287;28;94842;-68
2022/01/24 03:53:15;;;;;;;41.10;29.90;;;;;;;;;;4992054;28;93476;-68
2022/01/24 03:55:42;;;;;;;40.08;30.77;;;;;;;;;;4991916;28;92664;-68
2022/01/24 03:58:08;;;;;;;40.83;29.83;;;;;;;;;;4990701;28;93069;-68
2022/01/24 04:00:34;;;;;;;38.42;29.33;;;;;;;;;;4993515;28;93997;-68
2022/01/24 04:03:01;;;;;;;38.45;28.77;;;;;;;;;;4991261;28;92588;-68
2022/01/24 04:05:27;;;;;;;34.70;27.17;;;;;;;;;;4992758;28;94756;-68
2022/01/24 04:07:54;;;;;;;35.88;28.05;;;;;;;;;;4997635;28;94335;-68
2022/01/24 04:10:25;;;;;;;35.80;27.30;;;;;;;;;;4996345;28;93306;-68
2022/01/24 04:12:52;;;;;;;39.05;28.77;;;;;;;;;;4990528;28;93552;-68
2022/01/24 04:15:45;;;;;;;39.35;30.00;;;;;;;;;;4991120;28;94854;-68
2022/01/24 04:18:30;;;;;;;40.95;30.00;;;;;;;;;;4984938;28;96848;-68
2022/01/24 04:23:45;;;;;;;40.50;31.20;;;;;;;;;;4990617;28;92507;-68
2022/01/24 04:26:11;;;;;;;45.13;30.98;;;;;;;;;;4990221;28;95248;-69
2022/01/24 04:28:37;;;;;;;44.95;33.33;;;;;;;;;;4996662;28;93668;-68
2022/01/24 04:31:04;;;;;;;41.67;32.08;;;;;;;;;;4995091;28;92558;-68
2022/01/24 04:33:30;;;;;;;46.92;34.08;;;;;;;;;;4997268;28;93470;-68
2022/01/24 04:35:57;;;;;;;47.70;33.13;;;;;;;;;;4993841;28;92435;-68
2022/01/24 04:38:23;;;;;;;51.92;34.90;;;;;;;;;;4992664;28;94850;-68
2022/01/24 04:40:50;;;;;;;44.53;33.22;;;;;;;;;;4989034;28;95496;-68
2022/01/24 04:46:12;;;;;;;45.55;32.60;;;;;;;;;;4990443;28;93587;-68
2022/01/24 04:51:51;;;;;;;41.55;34.15;;;;;;;;;;5000027;28;93034;-68
2022/01/24 04:56:55;;;;;;;42.97;33.70;;;;;;;;;;4990600;28;93081;-68
2022/01/24 04:59:22;;;;;;;49.72;34.13;;;;;;;;;;4991686;28;93233;-69
2022/01/24 05:01:48;;;;;;;48.05;34.85;;;;;;;;;;4995335;28;94561;-68
2022/01/24 05:04:15;;;;;;;48.95;34.67;;;;;;;;;;4991526;28;94050;-68
2022/01/24 05:06:41;;;;;;;50.53;34.13;;;;;;;;;;4991103;28;96307;-68
2022/01/24 05:09:08;;;;;;;54.22;36.35;;;;;;;;;;4996611;28;93449;-68
2022/01/24 05:11:50;;;;;;;47.60;34.78;;;;;;;;;;4991441;28;92506;-69
2022/01/24 05:25:19;;;;;;;52.38;36.55;;;;;;;;;;4992854;28;91934;-69
2022/01/24 05:27:46;;;;;;;46.60;34.92;;;;;;;;;;4990333;28;93668;-68
2022/01/24 05:30:14;;;;;;;48.75;36.72;;;;;;;;;;4990466;28;93444;-68
2022/01/24 05:32:41;;;;;;;48.92;35.65;;;;;;;;;;4988802;28;94937;-68
2022/01/24 05:35:07;;;;;;;51.33;36.72;;;;;;;;;;4990037;28;95985;-68
2022/01/24 05:37:34;;;;;;;47.33;36.58;;;;;;;;;;4993114;28;93242;-68
2022/01/24 05:40:00;;;;;;;58.22;38.08;;;;;;;;;;4989174;28;94073;-68
2022/01/24 05:42:27;;;;;;;50.90;35.92;;;;;;;;;;4990746;28;94274;-68
2022/01/24 05:44:53;;;;;;;50.72;37.25;;;;;;;;;;4989645;28;94807;-68
2022/01/24 05:47:19;;;;;;;50.88;36.78;;;;;;;;;;4992145;28;94358;-68
2022/01/24 05:49:46;;;;;;;49.42;37.53;;;;;;;;;;4994658;28;93456;-68
2022/01/24 05:52:12;;;;;;;48.30;37.83;;;;;;;;;;4993007;28;93818;-68
2022/01/24 05:54:39;;;;;;;50.30;39.25;;;;;;;;;;4994566;28;93608;-68
2022/01/24 05:57:06;;;;;;;48.92;39.33;;;;;;;;;;4995435;28;96720;-68
2022/01/24 05:59:32;;;;;;;54.55;38.72;;;;;;;;;;4997856;28;92465;-68
2022/01/24 06:01:58;;;;;;;51.92;36.97;;;;;;;;;;4993121;28;94682;-68
2022/01/24 06:04:25;;;;;;;48.55;37.83;;;;;;;;;;4993955;28;94000;-68
2022/01/24 06:06:51;;;;;;;49.28;37.97;;;;;;;;;;4997427;28;94008;-68
2022/01/24 06:09:18;;;;;;;50.70;38.55;;;;;;;;;;4995635;28;93923;-68
2022/01/24 06:11:44;;;;;;;51.90;37.67;;;;;;;;;;4992044;28;92915;-68
2022/01/24 06:14:11;;;;;;;52.70;39.03;;;;;;;;;;4994693;28;93072;-68
2022/01/24 06:16:37;;;;;;;51.38;37.55;;;;;;;;;;4992944;28;94285;-68
2022/01/24 06:19:04;;;;;;;49.65;37.50;;;;;;;;;;4994295;28;94022;-68
2022/01/24 06:21:30;;;;;;;49.17;38.45;;;;;;;;;;4995402;28;95573;-68
2022/01/24 06:23:56;;;;;;;53.65;39.90;;;;;;;;;;4993305;28;92474;-68
2022/01/24 06:26:23;;;;;;;48.05;36.00;;;;;;;;;;4994831;28;93412;-68
2022/01/24 06:28:49;;;;;;;45.15;35.47;;;;;;;;;;4995512;28;94623;-68
2022/01/24 06:31:16;;;;;;;51.97;37.65;;;;;;;;;;4992274;28;92504;-68
2022/01/24 06:33:43;;;;;;;49.17;36.40;;;;;;;;;;4996266;28;94304;-68
2022/01/24 06:36:10;;;;;;;45.03;36.28;;;;;;;;;;4992910;28;93302;-68
2022/01/24 06:38:36;;;;;;;59.90;38.22;;;;;;;;;;4992989;28;92209;-68
2022/01/24 06:41:02;;;;;;;46.60;35.80;;;;;;;;;;4990477;28;95102;-68
2022/01/24 06:43:29;;;;;;;56.83;39.13;;;;;;;;;;4998222;28;94510;-68
2022/01/24 06:45:55;;;;;;;51.08;38.45;;;;;;;;;;4989522;28;96036;-68
2022/01/24 06:48:22;;;;;;;51.53;38.85;;;;;;;;;;4991895;28;93222;-68
2022/01/24 06:50:49;;;;;;;44.95;36.72;;;;;;;;;;4991351;28;92682;-68
2022/01/24 06:53:16;;;;;;;49.35;37.05;;;;;;;;;;4995148;28;94054;-68
2022/01/24 06:55:42;;;;;;;53.42;37.55;;;;;;;;;;4994013;28;93679;-68
2022/01/24 06:58:08;;;;;;;49.15;35.67;;;;;;;;;;4992741;28;92566;-68
2022/01/24 07:00:35;;;;;;;50.67;36.97;;;;;;;;;;4992411;28;94330;-67
2022/01/24 07:03:02;;;;;;;52.65;36.97;;;;;;;;;;5008012;28;93008;-67
2022/01/24 07:05:29;;;;;;;47.65;37.05;;;;;;;;;;4993313;28;92513;-67
2022/01/24 07:07:57;;;;;;;51.83;37.50;;;;;;;;;;4993226;28;94018;-67
2022/01/24 07:10:24;;;;;;;46.28;36.65;;;;;;;;;;4983722;28;95277;-67
2022/01/24 07:12:56;;;;;;;50.57;36.57;;;;;;;;;;4988484;28;97689;-68
2022/01/24 07:15:28;;;;;;;46.95;37.03;;;;;;;;;;5000889;28;92504;-69
2022/01/24 07:20:24;;;;;;;40.58;31.70;;;;;;;;;;4994079;28;122856;-68
2022/01/24 07:22:50;;;;;;;44.08;33.17;;;;;;;;;;4988689;28;94511;-68
2022/01/24 07:25:17;;;;;;;45.75;34.83;;;;;;;;;;4988923;28;94636;-68
2022/01/24 07:27:43;;;;;;;45.90;34.63;;;;;;;;;;4982438;28;93471;-68
2022/01/24 07:30:10;;;;;;;40.70;32.03;;;;;;;;;;4985522;28;93338;-68
2022/01/24 07:32:42;;;;;;;43.40;32.42;;;;;;;;;;4985566;28;94630;-68
2022/01/24 07:35:09;;;;;;;43.33;34.25;;;;;;;;;;4987634;28;96910;-68
2022/01/24 07:37:36;;;;;;;46.03;34.75;;;;;;;;;;4993559;28;93413;-68
2022/01/24 07:40:06;;;;;;;47.33;34.42;;;;;;;;;;4992611;28;92489;-68
2022/01/24 07:42:54;;;;;;;42.83;32.40;;;;;;;;;;4991336;28;93476;-69
2022/01/24 07:45:21;;;;;;;42.20;31.42;;;;;;;;;;4985895;28;92935;-69
2022/01/24 07:47:48;;;;;;;44.42;32.35;;;;;;;;;;4996195;28;94438;-69
2022/01/24 07:50:16;;;;;;;43.75;31.52;;;;;;;;;;4992117;28;93205;-68
2022/01/24 07:52:42;;;;;;;38.78;31.25;;;;;;;;;;4993691;28;93981;-68
2022/01/24 07:55:09;;;;;;;39.45;31.45;;;;;;;;;;4992490;28;93260;-68
2022/01/24 07:57:35;;;;;;;43.22;32.40;;;;;;;;;;4992156;28;92511;-68
2022/01/24 08:00:03;;;;;;;42.80;33.00;;;;;;;;;;4989263;28;94807;-68
2022/01/24 08:02:37;;;;;;;39.20;30.98;;;;;;;;;;4999149;28;92576;-68
2022/01/24 08:05:04;;;;;;;40.38;30.38;;;;;;;;;;5002788;28;92734;-68
2022/01/24 08:07:30;;;;;;;34.92;26.05;;;;;;;;;;4993867;28;93927;-68
2022/01/24 08:09:57;;;;;;;41.53;29.17;;;;;;;;;;4993578;28;93179;-68
2022/01/24 08:12:24;;;;;;;35.97;27.73;;;;;;;;;;4999966;28;93999;-68
2022/01/24 08:14:50;;;;;;;34.88;28.33;;;;;;;;;;4992254;28;93725;-69
2022/01/24 08:17:18;;;;;;;33.90;28.33;;;;;;;;;;4999942;28;91826;-68
2022/01/24 08:19:45;;;;;;;34.92;27.15;;;;;;;;;;4992910;28;94510;-68
2022/01/24 08:22:13;;;;;;;37.42;29.20;;;;;;;;;;4995754;28;93540;-68
2022/01/24 08:24:40;;;;;;;36.13;28.05;;;;;;;;;;4998865;28;95365;-68
2022/01/24 08:27:07;;;;;;;38.10;28.42;;;;;;;;;;4991417;28;95884;-68
2022/01/24 08:29:33;;;;;;;36.08;27.48;;;;;;;;;;4991683;28;93449;-68
2022/01/24 08:31:59;;;;;;;35.38;26.70;;;;;;;;;;4993321;28;92618;-68
2022/01/24 08:34:26;;;;;;;39.25;28.40;;;;;;;;;;4992863;28;93140;-68
2022/01/24 08:36:52;;;;;;;35.42;28.10;;;;;;;;;;4991758;28;92649;-68
2022/01/24 08:39:18;;;;;;;36.28;28.25;;;;;;;;;;4990219;28;93658;-68
2022/01/24 08:44:32;;;;;;;37.20;26.92;;;;;;;;;;4984246;28;92522;-68
2022/01/24 08:46:59;;;;;;;33.42;24.30;;;;;;;;;;4990000;28;93127;-68
2022/01/24 08:49:26;;;;;;;33.50;26.08;;;;;;;;;;4990270;28;96959;-68
2022/01/24 08:51:52;;;;;;;37.97;26.48;;;;;;;;;;4984847;28;92477;-68
2022/01/24 08:54:32;;;;;;;29.30;23.73;;;;;;;;;;4987858;28;93227;-69
2022/01/24 08:56:59;;;;;;;26.05;23.02;;;;;;;;;;4987512;28;92480;-69
2022/01/24 08:59:25;;;;;;;27.73;22.85;;;;;;;;;;4990616;28;93044;-67
2022/01/24 09:01:52;;;;;;;28.02;22.65;;;;;;;;;;4991744;28;94324;-67
2022/01/24 09:04:19;;;;;;;24.10;21.55;;;;;;;;;;4991202;28;92560;-67
2022/01/24 09:06:45;;;;;;;23.25;20.10;;;;;;;;;;4991407;28;93967;-67
2022/01/24 09:09:14;;;;;;;25.63;21.65;;;;;;;;;;4990458;28;93830;-67
2022/01/24 09:11:40;;;;;;;22.73;19.42;;;;;;;;;;4992123;28;94048;-67
2022/01/24 09:14:07;;;;;;;24.48;21.15;;;;;;;;;;4991278;28;95561;-67
2022/01/24 09:16:34;;;;;;;23.33;20.65;;;;;;;;;;4990304;28;92584;-67
2022/01/24 09:19:01;;;;;;;24.30;20.70;;;;;;;;;;4991237;28;93644;-67
2022/01/24 09:21:28;;;;;;;22.38;20.00;;;;;;;;;;4989478;28;93577;-67
2022/01/24 09:23:57;;;;;;;24.55;21.13;;;;;;;;;;4983392;28;92472;-67
2022/01/24 09:26:24;;;;;;;21.27;18.02;;;;;;;;;;4990591;28;93899;-69
2022/01/24 09:28:50;;;;;;;26.15;20.00;;;;;;;;;;4990069;28;93531;-69
2022/01/24 09:31:17;;;;;;;23.98;20.38;;;;;;;;;;4991565;28;91854;-69
2022/01/24 09:33:43;;;;;;;26.05;20.02;;;;;;;;;;4990889;28;93301;-67
2022/01/24 09:36:10;;;;;;;24.45;21.30;;;;;;;;;;4992575;28;93895;-69
2022/01/24 09:38:36;;;;;;;28.73;21.70;;;;;;;;;;4989692;28;94833;-69
2022/01/24 09:41:07;;;;;;;26.02;20.95;;;;;;;;;;4991405;28;94110;-69
2022/01/24 09:43:34;;;;;;;27.10;21.95;;;;;;;;;;4991059;28;92833;-67
2022/01/24 09:46:01;;;;;;;26.50;23.58;;;;;;;;;;4989860;28;93971;-67
2022/01/24 09:48:27;;;;;;;27.13;22.92;;;;;;;;;;4989250;28;94360;-67
2022/01/24 09:50:54;;;;;;;25.13;21.70;;;;;;;;;;4991042;28;92896;-67
2022/01/24 09:53:21;;;;;;;25.85;21.83;;;;;;;;;;4990608;28;94068;-67
2022/01/24 09:55:48;;;;;;;24.98;21.67;;;;;;;;;;4989720;28;92789;-67
2022/01/24 09:58:14;;;;;;;24.48;21.90;;;;;;;;;;4992902;28;93841;-67
2022/01/24 10:00:41;;;;;;;24.45;20.63;;;;;;;;;;4990403;28;93026;-68
2022/01/24 10:03:08;;;;;;;23.80;21.27;;;;;;;;;;4987875;28;94908;-67
2022/01/24 10:05:56;;;;;;;24.80;21.23;;;;;;;;;;4985521;28;96516;-67
2022/01/24 10:08:29;;;;;;;25.00;21.55;;;;;;;;;;4990087;28;93723;-68
2022/01/24 10:10:57;;;;;;;27.80;23.52;;;;;;;;;;4989959;28;92602;-67
2022/01/24 10:16:25;;;;;;;23.13;20.52;;;;;;;;;;4989898;28;95231;-68
2022/01/24 10:19:09;;;;;;;23.60;21.08;;;;;;;;;;4982402;28;92541;-67
2022/01/24 10:22:00;;;;;;;22.70;20.30;;;;;;;;;;4993041;28;93199;-67
2022/01/24 10:24:41;;;;;;;28.20;20.40;;;;;;;;;;4988832;28;92501;-67
2022/01/24 10:27:18;;;;;;;23.58;19.63;;;;;;;;;;4983377;28;93391;-67
2022/01/24 10:29:49;;;;;;;22.92;19.98;;;;;;;;;;4988646;28;96684;-67
2022/01/24 10:32:35;;;;;;;22.27;19.70;;;;;;;;;;4989442;28;92599;-67
2022/01/24 10:35:20;;;;;;;24.02;20.17;;;;;;;;;;4991975;28;95749;-67
2022/01/24 10:37:49;;;;;;;20.17;18.15;;;;;;;;;;4993309;28;94700;-67
2022/01/24 10:40:34;;;;;;;22.20;19.00;;;;;;;;;;4985960;28;92552;-68
2022/01/24 10:43:17;;;;;;;20.83;18.63;;;;;;;;;;4993643;28;94098;-67
2022/01/24 10:45:45;;;;;;;22.20;18.25;;;;;;;;;;4996030;28;93606;-68
2022/01/24 10:48:11;;;;;;;26.58;17.23;;;;;;;;;;4993501;28;94278;-67
2022/01/24 10:50:38;;;;;;;19.90;17.80;;;;;;;;;;4993788;28;94143;-69
2022/01/24 10:53:14;;;;;;;19.98;16.92;;;;;;;;;;4991797;28;93005;-69
2022/01/24 10:55:45;;;;;;;17.95;16.02;;;;;;;;;;4991867;28;96146;-68
2022/01/24 10:58:15;;;;;;;18.50;16.52;;;;;;;;;;4992021;28;93385;-68
2022/01/24 11:00:41;;;;;;;24.85;17.15;;;;;;;;;;4991358;28;92949;-67
2022/01/24 11:03:14;;;;;;;17.65;15.80;;;;;;;;;;4992547;28;93459;-68
2022/01/24 11:05:43;;;;;;;17.38;15.52;;;;;;;;;;4983805;28;94658;-67
2022/01/24 11:08:11;;;;;;;20.58;17.55;;;;;;;;;;5006365;28;92770;-68
2022/01/24 11:10:42;;;;;;;21.63;17.02;;;;;;;;;;4993953;28;95756;-68
2022/01/24 11:13:09;;;;;;;17.65;15.75;;;;;;;;;;4993015;28;92118;-68
2022/01/24 11:15:39;;;;;;;19.00;15.77;;;;;;;;;;5001976;28;93304;-68
2022/01/24 11:18:06;;;;;;;16.55;14.77;;;;;;;;;;4998121;28;93328;-68
2022/01/24 11:20:34;;;;;;;18.52;15.38;;;;;;;;;;4999179;28;95146;-67
2022/01/24 11:23:02;;;;;;;19.10;15.45;;;;;;;;;;4993513;28;95702;-67
2022/01/24 11:25:30;;;;;;;16.70;14.35;;;;;;;;;;4993749;28;93551;-68
2022/01/24 11:27:56;;;;;;;18.27;14.38;;;;;;;;;;4987303;28;92475;-68
2022/01/24 11:30:30;;;;;;;14.80;12.02;;;;;;;;;;4992950;28;92874;-68
2022/01/24 11:33:04;;;;;;;16.80;12.68;;;;;;;;;;4993438;28;92859;-68
2022/01/24 11:35:39;;;;;;;14.80;12.65;;;;;;;;;;4992902;28;95497;-69
2022/01/24 11:38:26;;;;;;;14.25;12.75;;;;;;;;;;4993849;28;93610;-68
2022/01/24 11:40:58;;;;;;;13.70;12.23;;;;;;;;;;4993295;28;92572;-68
2022/01/24 11:43:32;;;;;;;13.80;12.50;;;;;;;;;;4999417;28;93576;-69
2022/01/24 11:46:06;;;;;;;15.65;13.18;;;;;;;;;;4990550;28;95816;-69
2022/01/24 11:48:33;;;;;;;13.88;12.45;;;;;;;;;;4992196;28;92610;-68
2022/01/24 11:51:22;;;;;;;14.30;12.57;;;;;;;;;;4994401;28;93563;-68
2022/01/24 11:53:50;;;;;;;12.90;11.70;;;;;;;;;;4988303;28;93102;-69
2022/01/24 11:56:19;;;;;;;14.15;11.73;;;;;;;;;;4990200;28;93243;-69
2022/01/24 11:58:46;;;;;;;14.32;11.75;;;;;;;;;;4987883;28;93910;-69
2022/01/24 12:01:19;;;;;;;14.50;13.00;;;;;;;;;;4991800;28;92408;-69
2022/01/24 12:03:50;;;;;;;15.88;14.10;;;;;;;;;;4992503;28;93594;-68
2022/01/24 12:06:19;;;;;;;17.45;13.15;;;;;;;;;;4991612;28;93367;-69
2022/01/24 12:09:06;;;;;;;13.13;11.80;;;;;;;;;;4990765;28;93517;-68
2022/01/24 12:11:35;;;;;;;17.58;13.02;;;;;;;;;;4990460;28;94864;-68
2022/01/24 12:14:35;;;;;;;17.42;13.13;;;;;;;;;;4994746;28;93356;-68
2022/01/24 12:17:01;;;;;;;14.98;12.77;;;;;;;;;;4991066;28;93459;-68
2022/01/24 12:19:31;;;;;;;14.35;12.23;;;;;;;;;;4991164;28;93358;-68
2022/01/24 12:21:57;;;;;;;16.63;12.38;;;;;;;;;;4990710;28;92530;-69
2022/01/24 12:24:42;;;;;;;18.55;12.60;;;;;;;;;;4991540;28;94941;-69
2022/01/24 12:27:08;;;;;;;16.40;12.50;;;;;;;;;;4992534;28;94886;-69
2022/01/24 12:29:40;;;;;;;15.95;11.88;;;;;;;;;;4991967;28;92984;-69
2022/01/24 12:32:19;;;;;;;12.47;10.93;;;;;;;;;;4983992;28;93071;-68
2022/01/24 12:34:46;;;;;;;14.07;11.95;;;;;;;;;;4992005;28;94322;-69
2022/01/24 12:37:23;;;;;;;13.13;11.77;;;;;;;;;;4990629;28;95159;-68
2022/01/24 12:40:03;;;;;;;12.85;11.32;;;;;;;;;;4985084;28;94115;-69
2022/01/24 12:42:46;;;;;;;13.80;12.40;;;;;;;;;;4991918;28;92490;-69
2022/01/24 12:48:18;;;;;;;18.13;14.00;;;;;;;;;;4989314;28;93529;-69
2022/01/24 12:50:51;;;;;;;13.07;11.18;;;;;;;;;;4991088;28;93277;-69
2022/01/24 12:53:18;;;;;;;14.02;12.57;;;;;;;;;;4989622;28;93358;-68
2022/01/24 12:55:56;;;;;;;12.65;11.35;;;;;;;;;;4989860;28;95368;-68
2022/01/24 12:58:32;;;;;;;15.55;12.18;;;;;;;;;;4990006;28;92673;-68
2022/01/24 13:00:58;;;;;;;17.73;11.45;;;;;;;;;;4994559;28;94117;-67
2022/01/24 13:03:25;;;;;;;13.40;11.73;;;;;;;;;;4989673;28;95192;-68
2022/01/24 13:05:51;;;;;;;13.75;12.05;;;;;;;;;;4991400;28;95803;-68
2022/01/24 13:08:18;;;;;;;13.63;12.18;;;;;;;;;;4990889;28;94012;-68
2022/01/24 13:10:47;;;;;;;13.80;11.63;;;;;;;;;;4991072;28;93078;-69
2022/01/24 13:13:15;;;;;;;12.10;10.90;;;;;;;;;;4989942;28;93642;-68
2022/01/24 13:21:17;;;;;;;12.25;11.05;;;;;;;;;;4994056;28;94192;-69
2022/01/24 13:23:51;;;;;;;11.32;10.20;;;;;;;;;;4990588;28;92518;-68
2022/01/24 13:26:18;;;;;;;14.25;11.57;;;;;;;;;;4989544;28;93606;-70
2022/01/24 13:28:45;;;;;;;12.50;11.25;;;;;;;;;;4988448;28;95891;-69
2022/01/24 13:31:12;;;;;;;16.98;11.40;;;;;;;;;;4990734;28;92447;-68
2022/01/24 13:33:41;;;;;;;12.40;11.10;;;;;;;;;;4990118;28;93833;-68
2022/01/24 13:36:08;;;;;;;13.35;11.18;;;;;;;;;;4990163;28;93176;-68
2022/01/24 13:38:42;;;;;;;14.90;12.20;;;;;;;;;;4990340;28;94205;-68
2022/01/24 13:41:11;;;;;;;13.75;12.15;;;;;;;;;;4990232;28;93091;-68
2022/01/24 13:44:04;;;;;;;12.20;11.00;;;;;;;;;;4993594;28;93810;-68
2022/01/24 13:46:33;;;;;;;13.57;11.80;;;;;;;;;;4988592;28;93325;-68
2022/01/24 13:49:00;;;;;;;13.15;12.02;;;;;;;;;;4988677;28;93655;-71
2022/01/24 13:51:34;;;;;;;13.75;12.35;;;;;;;;;;4991038;28;92488;-68
2022/01/24 13:54:02;;;;;;;14.35;12.95;;;;;;;;;;4988610;28;95431;-68
2022/01/24 13:56:29;;;;;;;14.57;13.07;;;;;;;;;;4987136;28;94643;-69
2022/01/24 13:58:59;;;;;;;14.40;13.02;;;;;;;;;;4990221;28;92978;-69
2022/01/24 14:01:26;;;;;;;13.57;11.73;;;;;;;;;;4990509;28;93462;-68
2022/01/24 14:03:59;;;;;;;14.13;12.75;;;;;;;;;;4990775;28;93593;-68
2022/01/24 14:06:29;;;;;;;16.25;13.43;;;;;;;;;;4993993;28;93894;-69
2022/01/24 14:09:07;;;;;;;14.73;13.23;;;;;;;;;;4991720;28;94223;-68
2022/01/24 14:11:41;;;;;;;14.38;12.98;;;;;;;;;;4994700;28;92297;-68
2022/01/24 14:14:12;;;;;;;14.90;13.13;;;;;;;;;;4994189;28;92633;-68
2022/01/24 14:19:14;;;;;;;14.70;13.43;;;;;;;;;;4991828;28;96543;-68
2022/01/24 14:22:01;;;;;;;12.88;11.70;;;;;;;;;;4993854;28;95621;-68
2022/01/24 14:24:45;;;;;;;14.63;13.15;;;;;;;;;;4986230;28;93770;-68
2022/01/24 14:27:13;;;;;;;12.57;11.40;;;;;;;;;;4993250;28;92502;-68
2022/01/24 14:29:39;;;;;;;17.15;13.38;;;;;;;;;;4996259;28;94214;-68
2022/01/24 14:32:14;;;;;;;14.85;12.88;;;;;;;;;;4991361;28;93042;-68
2022/01/24 14:34:41;;;;;;;16.42;14.68;;;;;;;;;;4993968;28;94031;-68
2022/01/24 14:37:07;;;;;;;13.82;12.38;;;;;;;;;;4994899;28;93065;-68
2022/01/24 14:39:46;;;;;;;14.65;13.15;;;;;;;;;;4997987;28;92774;-68
2022/01/24 14:42:25;;;;;;;13.73;12.50;;;;;;;;;;4989118;28;94655;-68
2022/01/24 14:44:54;;;;;;;12.95;11.60;;;;;;;;;;4992406;28;96873;-68
2022/01/24 14:47:22;;;;;;;15.32;13.77;;;;;;;;;;4993902;28;93004;-68
2022/01/24 14:49:48;;;;;;;20.60;15.50;;;;;;;;;;4989153;28;94315;-68
2022/01/24 14:52:18;;;;;;;17.77;15.70;;;;;;;;;;4993537;28;94006;-69
2022/01/24 14:54:45;;;;;;;17.90;16.13;;;;;;;;;;4990209;28;93918;-70
2022/01/24 14:57:15;;;;;;;18.80;17.05;;;;;;;;;;4992904;28;93998;-68
2022/01/24 14:59:45;;;;;;;18.10;16.50;;;;;;;;;;4990655;28;92527;-69
2022/01/24 15:02:11;;;;;;;18.92;17.10;;;;;;;;;;4995884;28;94265;-69
2022/01/24 15:04:38;;;;;;;19.65;17.73;;;;;;;;;;4992856;28;93865;-68
2022/01/24 15:07:05;;;;;;;23.60;18.40;;;;;;;;;;4990308;28;93425;-68
2022/01/24 15:09:32;;;;;;;20.02;18.08;;;;;;;;;;4990329;28;94926;-68
2022/01/24 15:11:59;;;;;;;18.88;16.70;;;;;;;;;;4988525;28;94193;-68
2022/01/24 15:14:31;;;;;;;21.13;18.27;;;;;;;;;;4996377;28;92575;-68
2022/01/24 15:27:40;;;;;;;19.55;17.67;;;;;;;;;;4989575;28;92165;-68
2022/01/24 15:30:07;;;;;;;20.30;18.33;;;;;;;;;;4998731;28;93157;-68
2022/01/24 15:32:53;;;;;;;21.30;18.70;;;;;;;;;;4983856;28;94299;-68
2022/01/24 15:35:20;;;;;;;20.25;18.35;;;;;;;;;;4994129;28;95405;-68
2022/01/24 15:37:47;;;;;;;21.17;19.20;;;;;;;;;;4993264;28;93701;-68
2022/01/24 15:40:15;;;;;;;20.88;18.77;;;;;;;;;;4993054;28;92505;-68
2022/01/24 15:47:55;;;;;;;23.77;20.23;;;;;;;;;;4995422;28;94488;-68
2022/01/24 15:50:25;;;;;;;25.30;20.27;;;;;;;;;;4991516;28;94818;-68
2022/01/24 15:52:54;;;;;;;21.38;19.40;;;;;;;;;;4990102;28;93491;-68
2022/01/24 15:55:27;;;;;;;22.77;20.33;;;;;;;;;;4988549;28;94428;-68
2022/01/24 15:57:54;;;;;;;23.88;21.38;;;;;;;;;;4994618;28;93838;-68
2022/01/24 16:00:22;;;;;;;26.08;23.42;;;;;;;;;;4983068;28;95386;-68
2022/01/24 16:02:56;;;;;;;23.95;21.40;;;;;;;;;;4992779;28;96449;-68
2022/01/24 16:05:25;;;;;;;22.67;20.58;;;;;;;;;;4982007;28;93258;-68
2022/01/24 16:07:52;;;;;;;29.00;20.35;;;;;;;;;;4994043;28;92517;-68
2022/01/24 16:10:19;;;;;;;24.27;21.80;;;;;;;;;;4987750;28;93230;-68
2022/01/24 16:12:46;;;;;;;24.67;21.23;;;;;;;;;;4991808;28;94226;-69
2022/01/24 16:15:14;;;;;;;22.75;20.45;;;;;;;;;;4989808;28;92638;-69
2022/01/24 16:17:40;;;;;;;23.58;20.73;;;;;;;;;;4996037;28;94046;-70
2022/01/24 16:20:21;;;;;;;23.75;21.25;;;;;;;;;;4989151;28;94669;-69
2022/01/24 16:25:34;;;;;;;23.85;21.42;;;;;;;;;;4985488;28;98644;-69
2022/01/24 16:28:01;;;;;;;26.02;22.35;;;;;;;;;;4988763;28;93802;-68
2022/01/24 16:30:28;;;;;;;24.63;22.08;;;;;;;;;;4991263;28;93649;-68